BKP178 VTSM-VTBS
Flight info
| Callsign | BKP178 |
|---|---|
| Flight time | 0h 54m |
| Altitude | 37000 |
| Route | OLBAG1A OLBAG Y17 DONSI M769 LEBIM LEBIM1C |
| Aircraft | A319/M-SDE3FGHIRWY/LB1 |
Departure
| Time | 2026-04-10 21:11 |
|---|---|
| Airport | Samui International Airport (VTSM) |
Arrival
| Time | 2026-04-10 22:05 |
|---|---|
| Airport | Suvarnabhumi Airport (VTBS) |
| Time | Latitude | Longitude | Altitude | Speed | Heading |
|---|---|---|---|---|---|
| 2026-04-10 20:50 | 9.55243 | 100.06326 | 53 ft | 0 kts | 84° |
| 2026-04-10 21:04 | 9.55240 | 100.06310 | 51 ft | 4 kts | 62° |
| 2026-04-10 21:04 | 9.55223 | 100.06294 | 51 ft | 4 kts | 14° |
| 2026-04-10 21:04 | 9.55206 | 100.06291 | 53 ft | 0 kts | 354° |
| 2026-04-10 21:07 | 9.55209 | 100.06291 | 50 ft | 2 kts | 354° |
| 2026-04-10 21:07 | 9.55233 | 100.06289 | 51 ft | 5 kts | 354° |
| 2026-04-10 21:08 | 9.55276 | 100.06282 | 53 ft | 7 kts | 339° |
| 2026-04-10 21:08 | 9.55298 | 100.06231 | 53 ft | 9 kts | 272° |
| 2026-04-10 21:08 | 9.55349 | 100.06192 | 53 ft | 11 kts | 352° |
| 2026-04-10 21:08 | 9.55436 | 100.06183 | 53 ft | 14 kts | 354° |
| 2026-04-10 21:09 | 9.55540 | 100.06173 | 53 ft | 16 kts | 355° |
| 2026-04-10 21:09 | 9.55654 | 100.06184 | 53 ft | 14 kts | 5° |
| 2026-04-10 21:09 | 9.55690 | 100.06151 | 53 ft | 5 kts | 197° |
| 2026-04-10 21:09 | 9.55648 | 100.06163 | 51 ft | 8 kts | 171° |
| 2026-04-10 21:10 | 9.55637 | 100.06164 | 53 ft | 0 kts | 177° |
| 2026-04-10 21:10 | 9.55634 | 100.06164 | 53 ft | 2 kts | 177° |
| 2026-04-10 21:10 | 9.55504 | 100.06176 | 53 ft | 45 kts | 174° |
| 2026-04-10 21:10 | 9.54983 | 100.06227 | 51 ft | 105 kts | 174° |
| 2026-04-10 21:11 | 9.54067 | 100.06311 | 64 ft | 157 kts | 175° |
| 2026-04-10 21:11 | 9.52995 | 100.06419 | 680 ft | 155 kts | 172° |
| 2026-04-10 21:11 | 9.51966 | 100.06783 | 1285 ft | 157 kts | 159° |
| 2026-04-10 21:11 | 9.50957 | 100.07235 | 1892 ft | 164 kts | 159° |
| 2026-04-10 21:12 | 9.49831 | 100.07724 | 2167 ft | 189 kts | 159° |
| 2026-04-10 21:12 | 9.48553 | 100.08273 | 2494 ft | 214 kts | 160° |
| 2026-04-10 21:12 | 9.47195 | 100.08985 | 3158 ft | 227 kts | 140° |
| 2026-04-10 21:12 | 9.46336 | 100.10339 | 3950 ft | 235 kts | 104° |
| 2026-04-10 21:13 | 9.46228 | 100.11983 | 4884 ft | 233 kts | 89° |
| 2026-04-10 21:13 | 9.46240 | 100.13616 | 5840 ft | 231 kts | 89° |
| 2026-04-10 21:13 | 9.46257 | 100.15248 | 6697 ft | 232 kts | 87° |
| 2026-04-10 21:13 | 9.46701 | 100.16826 | 7454 ft | 238 kts | 59° |
| 2026-04-10 21:14 | 9.47866 | 100.18018 | 8231 ft | 244 kts | 30° |
| 2026-04-10 21:14 | 9.49489 | 100.18533 | 9012 ft | 248 kts | 8° |
| 2026-04-10 21:14 | 9.51200 | 100.18803 | 9822 ft | 251 kts | 8° |
| 2026-04-10 21:15 | 9.54682 | 100.19352 | 11319 ft | 255 kts | 7° |
| 2026-04-10 21:15 | 9.56499 | 100.19394 | 11822 ft | 272 kts | 359° |
| 2026-04-10 21:15 | 9.58471 | 100.19359 | 12103 ft | 295 kts | 359° |
| 2026-04-10 21:15 | 9.60604 | 100.19313 | 12344 ft | 318 kts | 359° |
| 2026-04-10 21:16 | 9.62899 | 100.19261 | 12530 ft | 340 kts | 359° |
| 2026-04-10 21:16 | 9.65303 | 100.19209 | 13039 ft | 349 kts | 359° |
| 2026-04-10 21:16 | 9.67745 | 100.19161 | 13670 ft | 354 kts | 359° |
| 2026-04-10 21:16 | 9.70216 | 100.19113 | 14262 ft | 357 kts | 359° |
| 2026-04-10 21:17 | 9.72697 | 100.19199 | 14844 ft | 359 kts | 9° |
| 2026-04-10 21:17 | 9.75111 | 100.19879 | 15406 ft | 362 kts | 24° |
| 2026-04-10 21:17 | 9.77382 | 100.21005 | 15991 ft | 365 kts | 27° |
| 2026-04-10 21:17 | 9.79660 | 100.22160 | 16601 ft | 367 kts | 28° |
| 2026-04-10 21:18 | 9.81958 | 100.23324 | 17176 ft | 371 kts | 27° |
| 2026-04-10 21:18 | 9.84278 | 100.24496 | 17765 ft | 374 kts | 28° |
| 2026-04-10 21:18 | 9.86610 | 100.25675 | 18334 ft | 377 kts | 28° |
| 2026-04-10 21:18 | 9.88965 | 100.26869 | 18832 ft | 380 kts | 28° |
| 2026-04-10 21:19 | 9.91338 | 100.28073 | 19351 ft | 383 kts | 28° |
| 2026-04-10 21:19 | 9.93734 | 100.29286 | 19871 ft | 386 kts | 27° |
| 2026-04-10 21:19 | 9.96140 | 100.30502 | 20380 ft | 389 kts | 27° |
| 2026-04-10 21:19 | 9.98568 | 100.31735 | 20889 ft | 391 kts | 28° |
| 2026-04-10 21:20 | 10.00981 | 100.33049 | 21379 ft | 395 kts | 30° |
| 2026-04-10 21:20 | 10.03373 | 100.34431 | 21856 ft | 397 kts | 31° |
| 2026-04-10 21:20 | 10.05732 | 100.35838 | 22329 ft | 400 kts | 32° |
| 2026-04-10 21:20 | 10.08167 | 100.37307 | 22803 ft | 404 kts | 32° |
| 2026-04-10 21:21 | 10.10586 | 100.38692 | 23277 ft | 407 kts | 26° |
| 2026-04-10 21:21 | 10.13258 | 100.39687 | 23678 ft | 412 kts | 15° |
| 2026-04-10 21:21 | 10.16108 | 100.40135 | 24060 ft | 417 kts | 4° |
| 2026-04-10 21:21 | 10.19012 | 100.40198 | 24453 ft | 419 kts | 2° |
| 2026-04-10 21:22 | 10.21932 | 100.40254 | 24840 ft | 421 kts | 2° |
| 2026-04-10 21:22 | 10.24865 | 100.40319 | 25223 ft | 423 kts | 3° |
| 2026-04-10 21:22 | 10.27817 | 100.40389 | 25607 ft | 425 kts | 3° |
| 2026-04-10 21:22 | 10.30773 | 100.40460 | 25980 ft | 427 kts | 3° |
| 2026-04-10 21:23 | 10.33752 | 100.40534 | 26352 ft | 429 kts | 2° |
| 2026-04-10 21:23 | 10.36742 | 100.40607 | 26720 ft | 431 kts | 3° |
| 2026-04-10 21:23 | 10.39748 | 100.40681 | 27091 ft | 433 kts | 2° |
| 2026-04-10 21:23 | 10.42761 | 100.40755 | 27454 ft | 435 kts | 3° |
| 2026-04-10 21:24 | 10.45794 | 100.40830 | 27814 ft | 436 kts | 3° |
| 2026-04-10 21:24 | 10.48832 | 100.40905 | 28166 ft | 438 kts | 3° |
| 2026-04-10 21:24 | 10.51888 | 100.40979 | 28532 ft | 441 kts | 3° |
| 2026-04-10 21:24 | 10.54964 | 100.41055 | 28874 ft | 443 kts | 3° |
| 2026-04-10 21:25 | 10.58052 | 100.41132 | 29230 ft | 445 kts | 3° |
| 2026-04-10 21:25 | 10.61153 | 100.41208 | 29578 ft | 447 kts | 3° |
| 2026-04-10 21:25 | 10.63214 | 100.41256 | 29805 ft | 448 kts | 3° |
| 2026-04-10 21:25 | 10.66339 | 100.41328 | 30108 ft | 450 kts | 3° |
| 2026-04-10 21:26 | 10.69480 | 100.41402 | 30377 ft | 453 kts | 3° |
| 2026-04-10 21:26 | 10.72637 | 100.41479 | 30641 ft | 455 kts | 3° |
| 2026-04-10 21:26 | 10.75806 | 100.41557 | 30899 ft | 457 kts | 3° |
| 2026-04-10 21:26 | 10.78991 | 100.41637 | 31157 ft | 459 kts | 3° |
| 2026-04-10 21:27 | 10.82190 | 100.41717 | 31416 ft | 461 kts | 3° |
| 2026-04-10 21:27 | 10.85407 | 100.41795 | 31663 ft | 463 kts | 3° |
| 2026-04-10 21:27 | 10.88633 | 100.41870 | 31966 ft | 464 kts | 3° |
| 2026-04-10 21:27 | 10.91857 | 100.41942 | 32335 ft | 463 kts | 3° |
| 2026-04-10 21:28 | 10.95075 | 100.42016 | 32704 ft | 463 kts | 3° |
| 2026-04-10 21:28 | 10.98298 | 100.42095 | 33074 ft | 463 kts | 3° |
| 2026-04-10 21:28 | 11.01509 | 100.42176 | 33462 ft | 462 kts | 3° |
| 2026-04-10 21:28 | 11.04730 | 100.42256 | 33844 ft | 462 kts | 3° |
| 2026-04-10 21:29 | 11.07943 | 100.42333 | 34181 ft | 462 kts | 3° |
| 2026-04-10 21:29 | 11.11154 | 100.42408 | 34532 ft | 461 kts | 3° |
| 2026-04-10 21:29 | 11.14350 | 100.42482 | 34886 ft | 460 kts | 2° |
| 2026-04-10 21:29 | 11.17539 | 100.42555 | 35269 ft | 458 kts | 3° |
| 2026-04-10 21:30 | 11.20721 | 100.42632 | 35644 ft | 456 kts | 3° |
| 2026-04-10 21:30 | 11.23892 | 100.42711 | 36002 ft | 455 kts | 3° |
| 2026-04-10 21:30 | 11.27052 | 100.42790 | 36349 ft | 454 kts | 3° |
| 2026-04-10 21:30 | 11.30213 | 100.42872 | 36692 ft | 453 kts | 3° |
| 2026-04-10 21:31 | 11.33359 | 100.42954 | 36858 ft | 453 kts | 3° |
| 2026-04-10 21:31 | 11.36508 | 100.43035 | 36880 ft | 451 kts | 3° |
| 2026-04-10 21:31 | 11.42769 | 100.43185 | 36879 ft | 449 kts | 3° |
| 2026-04-10 21:32 | 11.49017 | 100.43336 | 36879 ft | 449 kts | 3° |
| 2026-04-10 21:32 | 11.55267 | 100.43491 | 36879 ft | 449 kts | 3° |
| 2026-04-10 21:33 | 11.61513 | 100.43645 | 36875 ft | 449 kts | 3° |
| 2026-04-10 21:33 | 11.67760 | 100.43800 | 36874 ft | 449 kts | 3° |
| 2026-04-10 21:34 | 11.74010 | 100.43952 | 36871 ft | 449 kts | 3° |
| 2026-04-10 21:34 | 11.80259 | 100.44104 | 36870 ft | 449 kts | 3° |
| 2026-04-10 21:35 | 11.86509 | 100.44256 | 36868 ft | 449 kts | 4° |
| 2026-04-10 21:35 | 11.92754 | 100.44417 | 36869 ft | 449 kts | 3° |
| 2026-04-10 21:36 | 11.98999 | 100.44577 | 36870 ft | 449 kts | 3° |
| 2026-04-10 21:36 | 12.02128 | 100.44657 | 36764 ft | 455 kts | 3° |
| 2026-04-10 21:36 | 12.05334 | 100.44741 | 36519 ft | 466 kts | 3° |
| 2026-04-10 21:37 | 12.08594 | 100.44826 | 36014 ft | 471 kts | 3° |
| 2026-04-10 21:37 | 12.11886 | 100.44908 | 35333 ft | 473 kts | 3° |
| 2026-04-10 21:37 | 12.15169 | 100.44988 | 34568 ft | 475 kts | 3° |
| 2026-04-10 21:37 | 12.18458 | 100.45067 | 34186 ft | 468 kts | 3° |
| 2026-04-10 21:38 | 12.21698 | 100.45147 | 33471 ft | 467 kts | 3° |
| 2026-04-10 21:38 | 12.24909 | 100.45226 | 32505 ft | 469 kts | 3° |
| 2026-04-10 21:38 | 12.28159 | 100.45308 | 31898 ft | 465 kts | 3° |
| 2026-04-10 21:38 | 12.31381 | 100.45389 | 31346 ft | 460 kts | 3° |
| 2026-04-10 21:39 | 12.34565 | 100.45468 | 30787 ft | 456 kts | 3° |
| 2026-04-10 21:39 | 12.37718 | 100.45546 | 30237 ft | 452 kts | 3° |
| 2026-04-10 21:39 | 12.40846 | 100.45624 | 29643 ft | 448 kts | 4° |
| 2026-04-10 21:39 | 12.43947 | 100.45703 | 29098 ft | 442 kts | 3° |
| 2026-04-10 21:40 | 12.46995 | 100.45782 | 28565 ft | 436 kts | 4° |
| 2026-04-10 21:40 | 12.50016 | 100.45862 | 28041 ft | 431 kts | 3° |
| 2026-04-10 21:40 | 12.52998 | 100.45937 | 27533 ft | 426 kts | 2° |
| 2026-04-10 21:40 | 12.55945 | 100.46008 | 27048 ft | 421 kts | 4° |
| 2026-04-10 21:41 | 12.58774 | 100.46078 | 26574 ft | 417 kts | 3° |
| 2026-04-10 21:41 | 12.61656 | 100.46148 | 26107 ft | 413 kts | 2° |
| 2026-04-10 21:41 | 12.64515 | 100.46219 | 25652 ft | 409 kts | 2° |
| 2026-04-10 21:41 | 12.67346 | 100.46292 | 25211 ft | 406 kts | 2° |
| 2026-04-10 21:42 | 12.70165 | 100.46366 | 24771 ft | 404 kts | 2° |
| 2026-04-10 21:42 | 12.72966 | 100.46438 | 24330 ft | 402 kts | 2° |
| 2026-04-10 21:42 | 12.75752 | 100.46509 | 23885 ft | 400 kts | 1° |
| 2026-04-10 21:42 | 12.78528 | 100.46581 | 23424 ft | 398 kts | 1° |
| 2026-04-10 21:43 | 12.81290 | 100.46652 | 22902 ft | 396 kts | 1° |
| 2026-04-10 21:43 | 12.84028 | 100.46721 | 22440 ft | 392 kts | 1° |
| 2026-04-10 21:43 | 12.86746 | 100.46790 | 21975 ft | 388 kts | 1° |
| 2026-04-10 21:43 | 12.89427 | 100.46859 | 21484 ft | 384 kts | 1° |
| 2026-04-10 21:44 | 12.92094 | 100.46928 | 21003 ft | 381 kts | 1° |
| 2026-04-10 21:44 | 12.94731 | 100.46995 | 20518 ft | 378 kts | 1° |
| 2026-04-10 21:44 | 12.97343 | 100.47062 | 20031 ft | 375 kts | 1° |
| 2026-04-10 21:44 | 12.99943 | 100.47131 | 19547 ft | 372 kts | 1° |
| 2026-04-10 21:45 | 13.02518 | 100.47197 | 19060 ft | 369 kts | 1° |
| 2026-04-10 21:45 | 13.05078 | 100.47260 | 18578 ft | 367 kts | 1° |
| 2026-04-10 21:45 | 13.07608 | 100.47567 | 18085 ft | 365 kts | 13° |
| 2026-04-10 21:45 | 13.09988 | 100.48432 | 17573 ft | 363 kts | 25° |
| 2026-04-10 21:46 | 13.12117 | 100.49783 | 17126 ft | 358 kts | 34° |
| 2026-04-10 21:46 | 13.14139 | 100.51257 | 16677 ft | 355 kts | 34° |
| 2026-04-10 21:46 | 13.16156 | 100.52717 | 16229 ft | 353 kts | 34° |
| 2026-04-10 21:46 | 13.18154 | 100.54159 | 15787 ft | 351 kts | 34° |
| 2026-04-10 21:47 | 13.20145 | 100.55594 | 15345 ft | 348 kts | 34° |
| 2026-04-10 21:47 | 13.22123 | 100.57023 | 14911 ft | 347 kts | 33° |
| 2026-04-10 21:47 | 13.24090 | 100.58444 | 14475 ft | 345 kts | 34° |
| 2026-04-10 21:47 | 13.26046 | 100.59856 | 14051 ft | 343 kts | 34° |
| 2026-04-10 21:48 | 13.27962 | 100.61241 | 13736 ft | 339 kts | 34° |
| 2026-04-10 21:48 | 13.29922 | 100.62656 | 13589 ft | 340 kts | 34° |
| 2026-04-10 21:48 | 13.31853 | 100.64048 | 13419 ft | 340 kts | 34° |
| 2026-04-10 21:48 | 13.33762 | 100.65425 | 13242 ft | 339 kts | 34° |
| 2026-04-10 21:49 | 13.35711 | 100.66831 | 13081 ft | 338 kts | 34° |
| 2026-04-10 21:49 | 13.37633 | 100.68221 | 12910 ft | 337 kts | 34° |
| 2026-04-10 21:49 | 13.39547 | 100.69607 | 12743 ft | 337 kts | 34° |
| 2026-04-10 21:49 | 13.41460 | 100.70991 | 12573 ft | 336 kts | 34° |
| 2026-04-10 21:50 | 13.43344 | 100.72352 | 12412 ft | 335 kts | 34° |
| 2026-04-10 21:50 | 13.45245 | 100.73728 | 12244 ft | 334 kts | 34° |
| 2026-04-10 21:50 | 13.47143 | 100.75101 | 12079 ft | 333 kts | 34° |
| 2026-04-10 21:50 | 13.49037 | 100.76476 | 11909 ft | 333 kts | 34° |
| 2026-04-10 21:51 | 13.50945 | 100.77864 | 11742 ft | 332 kts | 34° |
| 2026-04-10 21:51 | 13.52797 | 100.79208 | 11582 ft | 325 kts | 34° |
| 2026-04-10 21:51 | 13.54631 | 100.80480 | 11403 ft | 314 kts | 28° |
| 2026-04-10 21:51 | 13.56623 | 100.81325 | 11174 ft | 308 kts | 14° |
| 2026-04-10 21:52 | 13.58713 | 100.81890 | 10935 ft | 306 kts | 13° |
| 2026-04-10 21:52 | 13.60740 | 100.82438 | 10704 ft | 305 kts | 13° |
| 2026-04-10 21:52 | 13.62789 | 100.82996 | 10472 ft | 304 kts | 13° |
| 2026-04-10 21:52 | 13.64860 | 100.83562 | 10238 ft | 303 kts | 14° |
| 2026-04-10 21:53 | 13.66864 | 100.84113 | 10018 ft | 302 kts | 14° |
| 2026-04-10 21:53 | 13.68917 | 100.84678 | 9837 ft | 301 kts | 14° |
| 2026-04-10 21:53 | 13.70917 | 100.85228 | 9589 ft | 301 kts | 14° |
| 2026-04-10 21:53 | 13.72963 | 100.85790 | 9267 ft | 299 kts | 14° |
| 2026-04-10 21:54 | 13.74969 | 100.86342 | 8947 ft | 298 kts | 14° |
| 2026-04-10 21:54 | 13.76943 | 100.86885 | 8636 ft | 297 kts | 14° |
| 2026-04-10 21:54 | 13.78955 | 100.87437 | 8378 ft | 292 kts | 14° |
| 2026-04-10 21:54 | 13.80861 | 100.87959 | 8261 ft | 282 kts | 14° |
| 2026-04-10 21:55 | 13.82729 | 100.88473 | 8135 ft | 273 kts | 14° |
| 2026-04-10 21:55 | 13.84540 | 100.88971 | 8001 ft | 266 kts | 14° |
| 2026-04-10 21:55 | 13.86316 | 100.89460 | 7742 ft | 264 kts | 14° |
| 2026-04-10 21:55 | 13.88084 | 100.89943 | 7473 ft | 262 kts | 14° |
| 2026-04-10 21:56 | 13.89839 | 100.90423 | 7215 ft | 260 kts | 14° |
| 2026-04-10 21:56 | 13.91578 | 100.90897 | 6964 ft | 258 kts | 14° |
| 2026-04-10 21:56 | 13.93311 | 100.91370 | 6691 ft | 257 kts | 14° |
| 2026-04-10 21:56 | 13.95035 | 100.91843 | 6417 ft | 256 kts | 14° |
| 2026-04-10 21:57 | 13.96761 | 100.92291 | 6135 ft | 255 kts | 8° |
| 2026-04-10 21:57 | 13.98487 | 100.92106 | 5864 ft | 249 kts | 334° |
| 2026-04-10 21:57 | 13.99827 | 100.91053 | 5589 ft | 242 kts | 303° |
| 2026-04-10 21:57 | 14.00483 | 100.89494 | 5307 ft | 237 kts | 280° |
| 2026-04-10 21:58 | 14.00868 | 100.87841 | 5036 ft | 237 kts | 280° |
| 2026-04-10 21:58 | 14.00981 | 100.86184 | 4759 ft | 231 kts | 256° |
| 2026-04-10 21:58 | 14.00262 | 100.84746 | 4494 ft | 235 kts | 225° |
| 2026-04-10 21:58 | 13.98795 | 100.83880 | 4283 ft | 249 kts | 197° |
| 2026-04-10 21:59 | 13.97140 | 100.83445 | 4117 ft | 241 kts | 194° |
| 2026-04-10 21:59 | 13.95549 | 100.83046 | 3856 ft | 232 kts | 195° |
| 2026-04-10 21:59 | 13.93993 | 100.82639 | 3527 ft | 232 kts | 197° |
| 2026-04-10 21:59 | 13.92358 | 100.82206 | 3278 ft | 247 kts | 196° |
| 2026-04-10 22:00 | 13.90739 | 100.81780 | 3107 ft | 236 kts | 197° |
| 2026-04-10 22:00 | 13.89160 | 100.81365 | 2952 ft | 221 kts | 197° |
| 2026-04-10 22:00 | 13.87728 | 100.80989 | 2829 ft | 204 kts | 197° |
| 2026-04-10 22:00 | 13.86409 | 100.80641 | 2743 ft | 189 kts | 197° |
| 2026-04-10 22:01 | 13.85157 | 100.80311 | 2664 ft | 183 kts | 197° |
| 2026-04-10 22:01 | 13.83945 | 100.79991 | 2488 ft | 180 kts | 197° |
| 2026-04-10 22:01 | 13.82734 | 100.79672 | 2325 ft | 180 kts | 197° |
| 2026-04-10 22:01 | 13.81522 | 100.79353 | 2160 ft | 177 kts | 196° |
| 2026-04-10 22:02 | 13.80353 | 100.79046 | 2106 ft | 164 kts | 196° |
| 2026-04-10 22:02 | 13.79275 | 100.78762 | 1952 ft | 159 kts | 195° |
| 2026-04-10 22:02 | 13.78200 | 100.78479 | 1764 ft | 156 kts | 195° |
| 2026-04-10 22:02 | 13.77171 | 100.78208 | 1573 ft | 154 kts | 195° |
| 2026-04-10 22:03 | 13.76133 | 100.77935 | 1375 ft | 153 kts | 193° |
| 2026-04-10 22:03 | 13.75166 | 100.77680 | 1188 ft | 134 kts | 195° |
| 2026-04-10 22:03 | 13.74296 | 100.77452 | 1014 ft | 125 kts | 193° |
| 2026-04-10 22:03 | 13.73457 | 100.77231 | 863 ft | 124 kts | 193° |
| 2026-04-10 22:04 | 13.72629 | 100.77013 | 709 ft | 123 kts | 194° |
| 2026-04-10 22:04 | 13.71795 | 100.76794 | 564 ft | 124 kts | 194° |
| 2026-04-10 22:04 | 13.70960 | 100.76562 | 396 ft | 125 kts | 195° |
| 2026-04-10 22:04 | 13.70110 | 100.76337 | 243 ft | 125 kts | 194° |
| 2026-04-10 22:05 | 13.69271 | 100.76125 | 99 ft | 124 kts | 193° |
| 2026-04-10 22:05 | 13.68471 | 100.75909 | 16 ft | 109 kts | 194° |
| 2026-04-10 22:05 | 13.67887 | 100.75762 | 11 ft | 60 kts | 194° |
| 2026-04-10 22:05 | 13.67636 | 100.75689 | 11 ft | 35 kts | 204° |
| 2026-04-10 22:06 | 13.67495 | 100.75585 | 13 ft | 15 kts | 221° |
| 2026-04-10 22:06 | 13.67451 | 100.75538 | 13 ft | 4 kts | 232° |
| 2026-04-10 22:06 | 13.67446 | 100.75497 | 13 ft | 7 kts | 283° |
| 2026-04-10 22:06 | 13.67495 | 100.75474 | 13 ft | 9 kts | 7° |
| 2026-04-10 22:07 | 13.67566 | 100.75492 | 13 ft | 12 kts | 14° |
| 2026-04-10 22:07 | 13.67653 | 100.75514 | 13 ft | 14 kts | 14° |
| 2026-04-10 22:07 | 13.67756 | 100.75542 | 13 ft | 17 kts | 15° |
| 2026-04-10 22:08 | 13.68013 | 100.75609 | 13 ft | 22 kts | 14° |
| 2026-04-10 22:08 | 13.68168 | 100.75649 | 14 ft | 24 kts | 14° |
| 2026-04-10 22:08 | 13.68333 | 100.75693 | 14 ft | 25 kts | 14° |
| 2026-04-10 22:08 | 13.68510 | 100.75739 | 14 ft | 28 kts | 14° |
| 2026-04-10 22:09 | 13.68636 | 100.75772 | 14 ft | 29 kts | 14° |
| 2026-04-10 22:09 | 13.68835 | 100.75824 | 13 ft | 29 kts | 14° |
| 2026-04-10 22:09 | 13.69037 | 100.75878 | 14 ft | 23 kts | 14° |
| 2026-04-10 22:09 | 13.69123 | 100.75799 | 13 ft | 19 kts | 282° |
| 2026-04-10 22:10 | 13.69155 | 100.75670 | 13 ft | 16 kts | 285° |
| 2026-04-10 22:10 | 13.69205 | 100.75625 | 13 ft | 10 kts | 355° |
| 2026-04-10 22:10 | 13.69275 | 100.75640 | 13 ft | 10 kts | 11° |
| 2026-04-10 22:10 | 13.69316 | 100.75602 | 13 ft | 8 kts | 285° |
| 2026-04-10 22:11 | 13.69328 | 100.75554 | 14 ft | 0 kts | 284° |
| 2026-04-10 22:11 | 13.69328 | 100.75552 | 13 ft | 0 kts | 284° |